Flight Track Log - Related Links

Times and Time Zones

All times are in EDT time to prevent confusion due to time zone crossing. See the NKS298 flight status page for this flight to view local times or setup timezone preferences in your user account.

Time Position Orientation Groundspeed Altitude Reporting Facility
EDT Latitude Longitude Course Direction KTS MPH feet Rate Location/Type
Thu 04:31:14 AM 36.0760 -115.1550 270° West 164 189 2,500  Level FlightAware ADS-B
Thu 04:31:29 AM 36.0760 -115.1700 270° West 163 188 3,200 2,400 Climbing FlightAware ADS-B
Thu 04:31:49 AM 36.0770 -115.1890 274° West 161 185 3,900 1,317 Climbing FlightAware ADS-B
Thu 04:32:10 AM 36.0770 -115.2070 270° West 175 201 4,100 750 Climbing FlightAware ADS-B
Thu 04:32:37 AM 36.0760 -115.2370 268° West 199 229 4,500 857 Climbing FlightAware ADS-B
Thu 04:32:45 AM 36.0740 -115.2460 255° West 206 237 4,600 1,125 Climbing FlightAware ADS-B
Thu 04:32:53 AM 36.0700 -115.2540 238° Southwest 213 245 4,800 923 Climbing FlightAware ADS-B
Thu 04:32:58 AM 36.0660 -115.2580 219° Southwest 222 255 4,800 500 Level FlightAware ADS-B
Thu 04:33:05 AM 36.0590 -115.2640 215° Southwest 236 272 4,900 400 Climbing FlightAware ADS-B
Thu 04:33:13 AM 36.0510 -115.2670 197° South 251 289 4,900 1,200 Level FlightAware ADS-B
Thu 04:33:35 AM 36.0250 -115.2740 192° South 275 316 5,500 1,941 Climbing FlightAware ADS-B
Thu 04:33:47 AM 36.0090 -115.2780 191° South 280 322 6,000 2,667 Climbing FlightAware ADS-B
Thu 04:33:53 AM 36.0010 -115.2780 180° South 281 323 6,300 3,111 Climbing FlightAware ADS-B
Thu 04:34:14 AM 35.9740 -115.2700 167° South 288 331 7,400 2,800 Climbing FlightAware ADS-B
Thu 04:34:23 AM 35.9650 -115.2620 144° Southeast 292 336 7,700 2,471 Climbing FlightAware ADS-B
Thu 04:34:31 AM 35.9570 -115.2510 132° Southeast 296 341 8,100 2,500 Climbing FlightAware ADS-B
Thu 04:34:35 AM 35.9550 -115.2450 112° Southeast 297 342 8,200 2,000 Climbing FlightAware ADS-B
Thu 04:34:43 AM 35.9520 -115.2320 106° East 301 346 8,500 2,143 Climbing FlightAware ADS-B
Thu 04:34:49 AM 35.9510 -115.2210 96° East 303 349 8,700 2,571 Climbing FlightAware ADS-B
Thu 04:35:11 AM 35.9520 -115.1830 88° East 304 350 9,700 2,588 Climbing FlightAware ADS-B
Thu 04:35:40 AM 35.9510 -115.1340 91° East 310 357 10,900 1,781 Climbing FlightAware ADS-B
Thu 04:36:15 AM 35.9490 -115.0690 92° East 346 398 11,600 867 Climbing FlightAware ADS-B
Thu 04:37:10 AM 35.9470 -114.9600 91° East 370 426 12,200 396 Climbing FlightAware ADS-B
Thu 04:37:46 AM 35.9460 -114.8960 91° East 370 426 12,200  Level FlightAware ADS-B
Thu 04:38:23 AM 35.9450 -114.8290 91° East 370 426 12,200 3,972 Level FlightAware ADS-B
Thu 04:38:57 AM 35.9430 -114.7130 91° East 403 464 16,900 5,273 Climbing FlightAware ADS-B
Thu 04:39:29 AM 35.9410 -114.6400 92° East 407 468 18,000 2,000 Climbing FlightAware ADS-B
Thu 04:40:03 AM 35.9400 -114.5600 91° East 416 479 19,100 1,865 Climbing FlightAware ADS-B
Thu 04:40:43 AM 35.9380 -114.4640 91° East 421 484 20,300 1,714 Climbing FlightAware ADS-B
Thu 04:41:13 AM 35.9360 -114.3900 92° East 429 494 21,100 1,412 Climbing FlightAware ADS-B
Thu 04:41:51 AM 35.9340 -114.2980 92° East 439 505 21,900 1,151 Climbing FlightAware ADS-B
Thu 04:42:26 AM 35.9320 -114.2130 92° East 450 518 22,500 1,114 Climbing FlightAware ADS-B
Thu 04:43:01 AM 35.9290 -114.1190 92° East 460 529 23,200 1,114 Climbing FlightAware ADS-B
Thu 04:43:36 AM 35.9270 -114.0240 91° East 470 541 23,800 1,268 Climbing FlightAware ADS-B
Thu 04:44:12 AM 35.9240 -113.9300 92° East 475 547 24,700 1,304 Climbing FlightAware ADS-B
Thu 04:44:45 AM 35.9140 -113.8400 98° East 479 551 25,300 1,304 Climbing FlightAware ADS-B
Thu 04:45:21 AM 35.8990 -113.7430 101° East 482 555 26,200 1,167 Climbing FlightAware ADS-B
Thu 04:45:57 AM 35.8830 -113.6450 101° East 493 567 26,700 1,059 Climbing FlightAware ADS-B
Thu 04:46:29 AM 35.8690 -113.5550 101° East 496 571 27,400 1,147 Climbing FlightAware ADS-B
Thu 04:47:05 AM 35.8530 -113.4560 101° East 501 577 28,000 1,083 Climbing FlightAware ADS-B
Thu 04:47:41 AM 35.8370 -113.3540 101° East 503 579 28,700 1,000 Climbing FlightAware ADS-B
Thu 04:48:17 AM 35.8210 -113.2550 101° East 510 587 29,200 943 Climbing FlightAware ADS-B
Thu 04:48:51 AM 35.8050 -113.1550 101° East 515 593 29,800 1,200 Climbing FlightAware ADS-B
Thu 04:49:27 AM 35.7880 -113.0520 101° East 514 592 30,600 1,333 Climbing FlightAware ADS-B
Thu 04:50:03 AM 35.7710 -112.9500 102° East 513 590 31,400 1,254 Climbing FlightAware ADS-B
Thu 04:50:34 AM 35.7570 -112.8620 101° East 513 590 32,000 1,324 Climbing FlightAware ADS-B
Thu 04:51:11 AM 35.7390 -112.7560 102° East 508 585 32,900 1,352 Climbing FlightAware ADS-B
Thu 04:51:45 AM 35.7230 -112.6590 101° East 507 583 33,600 1,200 Climbing FlightAware ADS-B
Thu 04:52:21 AM 35.7060 -112.5590 102° East 506 582 34,300 1,083 Climbing FlightAware ADS-B
Thu 04:52:57 AM 35.6880 -112.4580 102° East 503 579 34,900 583 Climbing FlightAware ADS-B
Thu 04:53:33 AM 35.6640 -112.3580 106° East 499 574 35,000 88 Climbing FlightAware ADS-B
Thu 04:54:05 AM 35.6440 -112.2720 106° East 502 578 35,000  Level FlightAware ADS-B
Thu 04:54:39 AM 35.6230 -112.1790 105° East 503 579 35,000  Level FlightAware ADS-B
Thu 04:55:17 AM 35.5980 -112.0730 106° East 504 580 35,000  Level FlightAware ADS-B
Thu 04:55:53 AM 35.5760 -111.9740 105° East 507 583 35,000  Level FlightAware ADS-B
Thu 04:56:25 AM 35.5550 -111.8860 106° East 507 583 35,000  Level FlightAware ADS-B
Thu 04:57:01 AM 35.5320 -111.7860 106° East 508 585 35,000  Level FlightAware ADS-B
Thu 04:57:37 AM 35.5090 -111.6880 106° East 507 583 35,000  Level FlightAware ADS-B
Thu 04:58:11 AM 35.4870 -111.5950 106° East 508 585 35,000  Level FlightAware ADS-B
Thu 04:58:47 AM 35.4640 -111.4950 106° East 507 583 35,000  Level FlightAware ADS-B
Thu 04:59:23 AM 35.4410 -111.3960 106° East 507 583 35,000  Level FlightAware ADS-B
Thu 04:59:55 AM 35.4200 -111.3070 106° East 507 583 35,000  Level FlightAware ADS-B
Thu 05:00:30 AM 35.3970 -111.2110 106° East 507 583 35,000  Level FlightAware ADS-B
Thu 05:01:07 AM 35.3730 -111.1100 106° East 507 583 35,000  Level FlightAware ADS-B
Thu 05:01:39 AM 35.3520 -111.0210 106° East 507 583 35,000  Level FlightAware ADS-B
Thu 05:02:16 AM 35.3280 -110.9210 106° East 508 585 35,000  Level FlightAware ADS-B
Thu 05:02:51 AM 35.3040 -110.8220 107° East 507 583 35,000  Level FlightAware ADS-B
Thu 05:03:25 AM 35.2810 -110.7280 107° East 507 583 35,000  Level FlightAware ADS-B
Thu 05:04:00 AM 35.2580 -110.6330 106° East 507 583 35,000  Level FlightAware ADS-B
Thu 05:04:28 AM 35.2390 -110.5550 107° East 509 586 35,000  Level FlightAware ADS-B
Thu 05:05:04 AM 35.2150 -110.4560 107° East 509 586 35,000  Level FlightAware ADS-B
Thu 05:05:36 AM 35.1940 -110.3690 106° East 509 586 35,000  Level FlightAware ADS-B
Thu 05:06:12 AM 35.1700 -110.2710 107° East 507 583 35,000  Level FlightAware ADS-B
Thu 05:06:49 AM 35.1450 -110.1710 107° East 505 581 35,000  Level FlightAware ADS-B
Thu 05:07:22 AM 35.1220 -110.0780 107° East 505 581 35,000  Level FlightAware ADS-B
Thu 05:07:58 AM 35.0970 -109.9800 107° East 505 581 35,000  Level FlightAware ADS-B
Thu 05:08:34 AM 35.0730 -109.8810 106° East 505 581 35,000  Level FlightAware ADS-B
Thu 05:09:10 AM 35.0490 -109.7860 107° East 506 582 35,000  Level FlightAware ADS-B
Thu 05:09:42 AM 35.0260 -109.6960 107° East 507 583 35,000  Level FlightAware ADS-B
Thu 05:10:18 AM 35.0020 -109.5990 107° East 509 586 35,000  Level FlightAware ADS-B
Thu 05:10:54 AM 34.9760 -109.4990 108° East 508 585 35,000  Level FlightAware ADS-B
Thu 05:11:26 AM 34.9540 -109.4130 107° East 508 585 35,000  Level FlightAware ADS-B
Thu 05:11:59 AM 34.9310 -109.3240 107° East 509 586 35,000  Level FlightAware ADS-B
Thu 05:12:40 AM 34.9020 -109.2110 107° East 509 586 35,000  Level FlightAware ADS-B
Thu 05:13:12 AM 34.8800 -109.1240 107° East 509 586 35,000  Level FlightAware ADS-B
Thu 05:13:48 AM 34.8540 -109.0230 107° East 507 583 35,000  Level FlightAware ADS-B
Thu 05:14:25 AM 34.8290 -108.9270 108° East 508 585 35,000  Level FlightAware ADS-B
Thu 05:15:00 AM 34.8040 -108.8320 108° East 508 585 35,000  Level FlightAware ADS-B
Thu 05:15:39 AM 34.7790 -108.7340 107° East 508 585 35,000  Level FlightAware ADS-B
Thu 05:16:15 AM 34.7580 -108.6500 107° East 508 585 35,000  Level FlightAware ADS-B
Thu 05:16:51 AM 34.7370 -108.5670 107° East 508 585 35,000  Level FlightAware ADS-B
Thu 05:17:25 AM 34.7170 -108.4880 107° East 508 585 35,000  Level FlightAware ADS-B
Thu 05:18:03 AM 34.6950 -108.3990 107° East 508 585 35,000  Level FlightAware ADS-B
Thu 05:18:39 AM 34.6740 -108.3160 107° East 508 585 35,000  Level FlightAware ADS-B
Thu 05:19:16 AM 34.6530 -108.2300 107° East 508 585 35,000  Level FlightAware ADS-B
Thu 05:19:53 AM 34.6310 -108.1440 107° East 508 585 35,000  Level FlightAware ADS-B
Thu 05:20:29 AM 34.6100 -108.0600 107° East 508 585 35,000  Level FlightAware ADS-B
Thu 05:21:05 AM 34.5890 -107.9770 107° East 508 585 35,000  Level FlightAware ADS-B
Thu 05:21:41 AM 34.5680 -107.8930 107° East 508 585 35,000  Level FlightAware ADS-B
Thu 05:22:17 AM 34.5470 -107.8100 107° East 508 585 35,000  Level FlightAware ADS-B
Thu 05:22:56 AM 34.4600 -107.5420 111° Southeast 509 586 35,000  Level FlightAware ADS-B
Thu 05:23:33 AM 34.4370 -107.4570 108° East 509 586 35,000  Level FlightAware ADS-B
Thu 05:24:09 AM 34.4150 -107.3740 108° East 509 586 35,000  Level FlightAware ADS-B
Thu 05:24:45 AM 34.3920 -107.2910 109° East 509 586 35,000  Level FlightAware ADS-B
Thu 05:25:21 AM 34.3700 -107.2070 108° East 509 586 35,000  Level FlightAware ADS-B
Thu 05:25:59 AM 34.3170 -107.0470 112° Southeast 504 580 35,000  Level FlightAware ADS-B
Thu 05:26:38 AM 34.2850 -106.9450 111° Southeast 504 580 35,000  Level FlightAware ADS-B
Thu 05:27:24 AM 34.2540 -106.8430 110° East 504 580 35,000  Level FlightAware ADS-B
Thu 05:28:00 AM 34.2230 -106.7410 110° East 505 581 35,000  Level FlightAware ADS-B
Thu 05:28:37 AM 34.1890 -106.6340 111° Southeast 504 580 35,000  Level FlightAware ADS-B
Thu 05:29:14 AM 34.1640 -106.5500 110° East 504 580 35,000  Level FlightAware ADS-B
Thu 05:29:50 AM 34.1390 -106.4690 110° East 504 580 35,000  Level FlightAware ADS-B
Thu 05:30:26 AM 34.1150 -106.3880 110° East 504 580 35,000  Level FlightAware ADS-B
Thu 05:31:03 AM 34.0900 -106.3050 110° East 504 580 35,000  Level FlightAware ADS-B
Thu 05:31:39 AM 34.0660 -106.2240 110° East 504 580 35,000  Level FlightAware ADS-B
Thu 05:32:15 AM 34.0410 -106.1430 110° East 504 580 35,000  Level FlightAware ADS-B
Thu 05:32:51 AM 34.0170 -106.0620 110° East 504 580 35,000  Level FlightAware ADS-B
Thu 05:33:27 AM 33.9920 -105.9810 110° East 504 580 35,000  Level FlightAware ADS-B
Thu 05:34:04 AM 33.9670 -105.8980 110° East 504 580 35,000  Level FlightAware ADS-B
Thu 05:34:40 AM 33.9430 -105.8170 110° East 504 580 35,000  Level FlightAware ADS-B
Thu 05:35:16 AM 33.9180 -105.7370 111° Southeast 504 580 35,000  Level FlightAware ADS-B
Thu 05:35:52 AM 33.8940 -105.6560 110° East 504 580 35,000  Level FlightAware ADS-B
Thu 05:36:28 AM 33.8700 -105.5750 110° East 504 580 35,000  Level FlightAware ADS-B
Thu 05:37:04 AM 33.8450 -105.4940 110° East 504 580 35,000  Level FlightAware ADS-B
Thu 05:37:41 AM 33.8200 -105.4110 110° East 504 580 35,000  Level FlightAware ADS-B
Thu 05:38:17 AM 33.7960 -105.3310 110° East 504 580 35,000 1,053 Level FlightAware ADS-B
Thu 05:39:35 AM 33.6433 -104.9322 110° East 498 573 37,000 863 Climbing Albuquerque Center
Thu 05:40:36 AM 33.5928 -104.7767 111° Southeast 497 572 37,000  Level Albuquerque Center
Thu 05:41:36 AM 33.5442 -104.6325 112° Southeast 501 577 37,000  Level Albuquerque Center
Thu 05:42:36 AM 33.4939 -104.4778 111° Southeast 501 577 37,000  Level Albuquerque Center
Thu 05:43:36 AM 33.4361 -104.3097 112° Southeast 498 573 37,000  Level Albuquerque Center
Thu 05:44:37 AM 33.3889 -104.1692 112° Southeast 502 578 37,000  Level Albuquerque Center
Thu 05:45:37 AM 33.3372 -104.0158 112° Southeast 500 575 37,000  Level Albuquerque Center
Thu 05:46:37 AM 33.2886 -103.8600 110° East 501 577 37,000  Level Albuquerque Center
Thu 05:47:37 AM 33.2347 -103.7086 113° Southeast 499 574 37,000  Level Albuquerque Center
Thu 05:48:38 AM 33.1833 -103.5539 112° Southeast 500 575 37,000  Level Albuquerque Center
Thu 05:49:38 AM 33.1294 -103.4017 113° Southeast 500 575 37,000  Level Albuquerque Center
Thu 05:50:38 AM 33.0772 -103.2475 112° Southeast 500 575 37,000  Level Albuquerque Center
Thu 05:51:38 AM 33.0225 -103.0947 113° Southeast 502 578 37,000  Level Albuquerque Center
Thu 05:52:17 AM 32.9886 -103.0003 113° Southeast 489 563 37,000  Level Fort Worth Center
Thu 05:53:17 AM 32.9347 -102.8461 113° Southeast 489 563 37,000  Level Fort Worth Center
Thu 05:58:38 AM 32.5800 -102.0420 113° Southeast 502 578 37,000  Level FlightAware ADS-B
Thu 05:59:10 AM 32.5410 -101.9680 122° Southeast 503 579 37,000  Level FlightAware ADS-B
Thu 05:59:48 AM 32.4950 -101.8790 121° Southeast 502 578 37,000  Level FlightAware ADS-B
Thu 06:00:24 AM 32.4500 -101.7940 122° Southeast 502 578 37,000  Level FlightAware ADS-B
Thu 06:00:56 AM 32.4110 -101.7200 122° Southeast 502 578 37,000  Level FlightAware ADS-B
Thu 06:01:32 AM 32.3670 -101.6360 122° Southeast 503 579 37,000  Level FlightAware ADS-B
Thu 06:02:08 AM 32.3210 -101.5510 123° Southeast 503 579 37,000  Level FlightAware ADS-B
Thu 06:02:44 AM 32.2770 -101.4690 122° Southeast 502 578 37,000  Level FlightAware ADS-B
Thu 06:03:16 AM 32.2380 -101.3930 121° Southeast 501 577 37,000  Level FlightAware ADS-B
Thu 06:03:48 AM 32.2080 -101.3140 114° Southeast 500 575 37,000  Level FlightAware ADS-B
Thu 06:04:28 AM 32.1740 -101.2150 112° Southeast 500 575 37,000  Level FlightAware ADS-B
Thu 06:05:00 AM 32.1470 -101.1310 111° Southeast 499 574 37,000  Level FlightAware ADS-B
Thu 06:05:37 AM 32.1160 -101.0400 112° Southeast 500 575 37,000  Level FlightAware ADS-B
Thu 06:06:10 AM 32.0870 -100.9570 112° Southeast 500 575 37,000  Level FlightAware ADS-B
Thu 06:06:48 AM 32.0520 -100.8590 113° Southeast 499 574 37,000  Level FlightAware ADS-B
Thu 06:07:18 AM 32.0260 -100.7830 112° Southeast 501 577 37,000  Level FlightAware ADS-B
Thu 06:07:56 AM 31.9930 -100.6890 112° Southeast 501 577 37,000  Level FlightAware ADS-B
Thu 06:08:32 AM 31.9610 -100.5960 112° Southeast 501 577 37,000  Level FlightAware ADS-B
Thu 06:09:05 AM 31.9330 -100.5150 112° Southeast 501 577 37,000  Level FlightAware ADS-B
Thu 06:09:38 AM 31.9030 -100.4300 113° Southeast 499 574 37,000  Level FlightAware ADS-B
Thu 06:10:18 AM 31.8690 -100.3320 112° Southeast 497 572 37,000  Level FlightAware ADS-B
Thu 06:10:48 AM 31.8420 -100.2560 113° Southeast 496 571 37,000  Level FlightAware ADS-B
Thu 06:11:26 AM 31.8110 -100.1670 112° Southeast 494 568 37,000  Level FlightAware ADS-B
Thu 06:12:02 AM 31.7830 -100.0880 113° Southeast 492 566 37,000  Level FlightAware ADS-B
Thu 06:12:38 AM 31.7460 -99.9860 113° Southeast 492 566 37,000  Level FlightAware ADS-B
Thu 06:13:14 AM 31.7140 -99.8950 112° Southeast 494 568 37,000  Level FlightAware ADS-B
Thu 06:13:48 AM 31.6850 -99.8120 112° Southeast 495 570 37,000  Level FlightAware ADS-B
Thu 06:14:24 AM 31.6530 -99.7230 113° Southeast 496 571 37,000  Level FlightAware ADS-B
Thu 06:15:00 AM 31.6210 -99.6340 113° Southeast 494 568 37,000  Level FlightAware ADS-B
Thu 06:15:32 AM 31.5930 -99.5560 113° Southeast 493 567 37,000  Level FlightAware ADS-B
Thu 06:16:08 AM 31.5610 -99.4660 113° Southeast 491 565 37,000  Level FlightAware ADS-B
Thu 06:16:40 AM 31.5330 -99.3900 113° Southeast 490 564 37,000  Level FlightAware ADS-B
Thu 06:17:17 AM 31.5010 -99.3000 113° Southeast 488 562 37,000  Level FlightAware ADS-B
Thu 06:17:54 AM 31.4710 -99.2060 110° East 487 560 37,000  Level FlightAware ADS-B
Thu 06:18:26 AM 31.4550 -99.1250 103° East 487 560 37,000  Level FlightAware ADS-B
Thu 06:19:02 AM 31.4360 -99.0320 103° East 487 560 37,000  Level FlightAware ADS-B
Thu 06:19:38 AM 31.4168 -98.9410 104° East 486 559 37,000  Level FlightAware ADS-B
Thu 06:20:09 AM 31.4003 -98.8617 104° East 486 559 37,000  Level FlightAware ADS-B
Thu 06:20:49 AM 31.3788 -98.7591 104° East 486 559 37,000  Level FlightAware ADS-B
Thu 06:21:20 AM 31.3624 -98.6810 104° East 485 558 37,000  Level FlightAware ADS-B
Thu 06:21:56 AM 31.3430 -98.5900 104° East 484 557 37,000  Level FlightAware ADS-B
Thu 06:22:37 AM 31.3208 -98.4836 104° East 484 557 37,000  Level FlightAware ADS-B
Thu 06:23:11 AM 31.3028 -98.3990 104° East 485 558 37,000  Level FlightAware ADS-B
Thu 06:23:45 AM 31.2842 -98.3115 104° East 487 560 37,000  Level FlightAware ADS-B
Thu 06:24:16 AM 31.2674 -98.2336 104° East 487 560 37,000  Level FlightAware ADS-B
Thu 06:24:46 AM 31.2508 -98.1564 104° East 487 560 37,000  Level FlightAware ADS-B
Thu 06:25:26 AM 31.2290 -98.0560 104° East 486 559 37,000  Level FlightAware ADS-B
Thu 06:25:40 AM 31.2215 -98.0199 104° East 486 559 37,000  Level FlightAware ADS-B
Thu 06:26:11 AM 31.2045 -97.9412 104° East 486 559 37,000  Level FlightAware ADS-B
Thu 06:27:08 AM 31.1732 -97.7974 104° East 486 559 37,000  Level FlightAware ADS-B
Thu 06:27:38 AM 31.1561 -97.7196 104° East 484 557 37,000  Level FlightAware ADS-B
Thu 06:28:09 AM 31.1389 -97.6415 104° East 484 557 37,000  Level FlightAware ADS-B
Thu 06:28:14 AM 31.1360 -97.6287 105° East 485 558 37,000  Level FlightAware ADS-B
Thu 06:28:40 AM 31.1219 -97.5641 104° East 484 557 37,000  Level FlightAware ADS-B
Thu 06:29:00 AM 31.1105 -97.5125 104° East 484 557 37,000  Level FlightAware ADS-B
Thu 06:29:10 AM 31.1049 -97.4870 104° East 485 558 37,000  Level FlightAware ADS-B
Thu 06:29:41 AM 31.0879 -97.4099 104° East 485 558 37,000  Level FlightAware ADS-B
Thu 06:30:13 AM 31.0700 -97.3295 105° East 485 558 37,000 -1,174 Level FlightAware ADS-B
Thu 06:31:13 AM 31.0352 -97.1772 105° East 489 563 35,200 -1,974 Descending FlightAware ADS-B
Thu 06:31:29 AM 31.0251 -97.1361 106° East 491 565 34,500 -2,813 Descending FlightAware ADS-B
Thu 06:31:45 AM 31.0109 -97.0983 117° Southeast 496 571 33,700 -2,379 Descending FlightAware ADS-B
Thu 06:33:25 AM 30.8686 -96.8940 129° Southeast 477 549 29,900 -2,198 Descending FlightAware ADS-B
Thu 06:33:56 AM 30.8268 -96.8350 130° Southeast 469 540 28,900 -2,164 Descending FlightAware ADS-B
Thu 06:34:26 AM 30.7860 -96.7776 130° Southeast 450 518 27,700 -3,000 Descending FlightAware ADS-B
Thu 06:34:56 AM 30.7457 -96.7212 130° Southeast 456 525 25,900 -3,300 Descending FlightAware ADS-B
Thu 06:35:26 AM 30.7046 -96.6638 130° Southeast 459 528 24,400 -3,246 Descending FlightAware ADS-B
Thu 06:35:57 AM 30.6637 -96.6066 130° Southeast 455 524 22,600 -3,541 Descending FlightAware ADS-B
Thu 06:36:27 AM 30.6237 -96.5509 130° Southeast 447 514 20,800 -3,400 Descending FlightAware ADS-B
Thu 06:37:27 AM 30.5452 -96.4420 130° Southeast 426 490 17,500 -3,231 Descending FlightAware ADS-B
Thu 06:37:58 AM 30.5075 -96.3894 130° Southeast 415 478 15,900 -3,049 Descending FlightAware ADS-B
Thu 06:38:28 AM 30.4708 -96.3385 130° Southeast 402 463 14,400 -2,565 Descending FlightAware ADS-B
Thu 06:40:16 AM 30.3434 -96.1629 130° Southeast 383 441 10,000 -2,213 Descending FlightAware ADS-B
Thu 06:40:30 AM 30.3278 -96.1414 130° Southeast 368 423 9,900 -109 Descending FlightAware ADS-B
Thu 06:41:11 AM 30.2884 -96.0870 130° Southeast 309 356 9,900 -833 Level FlightAware ADS-B
Thu 06:41:42 AM 30.2601 -96.0481 130° Southeast 306 352 8,900 -1,957 Descending FlightAware ADS-B
Thu 06:41:57 AM 30.2464 -96.0293 130° Southeast 305 351 8,400 -2,133 Descending FlightAware ADS-B
Thu 06:42:27 AM 30.2188 -95.9916 130° Southeast 302 348 7,300 -2,066 Descending FlightAware ADS-B
Thu 06:42:58 AM 30.1920 -95.9553 131° Southeast 287 330 6,300 -2,066 Descending FlightAware ADS-B
Thu 06:43:28 AM 30.1654 -95.9188 130° Southeast 290 334 5,200 -1,696 Descending FlightAware ADS-B
Thu 06:43:44 AM 30.1523 -95.9008 130° Southeast 285 328 5,000 -581 Descending FlightAware ADS-B
Thu 06:43:59 AM 30.1395 -95.8831 130° Southeast 285 328 4,900 -200 Descending FlightAware ADS-B
Thu 06:44:14 AM 30.1265 -95.8654 130° Southeast 284 327 4,900 200 Level FlightAware ADS-B
Thu 06:44:29 AM 30.1136 -95.8480 131° Southeast 283 326 5,000 200 Climbing FlightAware ADS-B
Thu 06:44:44 AM 30.1010 -95.8309 130° Southeast 282 325 5,000  Level FlightAware ADS-B
Thu 06:45:00 AM 30.0881 -95.8133 130° Southeast 282 325 5,000  Level FlightAware ADS-B
Thu 06:45:15 AM 30.0748 -95.7952 130° Southeast 282 325 5,000  Level FlightAware ADS-B
Thu 06:45:31 AM 30.0617 -95.7772 130° Southeast 284 327 5,000 -194 Level FlightAware ADS-B
Thu 06:45:46 AM 30.0486 -95.7595 131° Southeast 281 323 4,900 -387 Descending FlightAware ADS-B
Thu 06:46:02 AM 30.0360 -95.7420 130° Southeast 264 304 4,800 -968 Descending FlightAware ADS-B
Thu 06:46:17 AM 30.0240 -95.7257 130° Southeast 258 297 4,400 -1,400 Descending FlightAware ADS-B
Thu 06:46:32 AM 30.0124 -95.7099 130° Southeast 259 298 4,100 -1,034 Descending FlightAware ADS-B
Thu 06:46:46 AM 30.0021 -95.6960 131° Southeast 256 295 3,900 -706 Descending FlightAware ADS-B
Thu 06:46:49 AM 29.9995 -95.6920 127° Southeast 253 291 3,900  Level FlightAware ADS-B
Thu 06:46:53 AM 29.9975 -95.6880 120° Southeast 252 290 3,900  Level FlightAware ADS-B
Thu 06:46:56 AM 29.9958 -95.6836 114° Southeast 249 287 3,900  Level FlightAware ADS-B
Thu 06:46:59 AM 29.9948 -95.6799 107° East 245 282 3,900  Level FlightAware ADS-B
Thu 06:47:04 AM 29.9937 -95.6739 102° East 245 282 3,900  Level FlightAware ADS-B
Thu 06:47:10 AM 29.9929 -95.6659 97° East 245 282 3,900  Level FlightAware ADS-B
Thu 06:47:16 AM 29.9926 -95.6587 93° East 244 281 3,900  Level FlightAware ADS-B
Thu 06:47:31 AM 29.9926 -95.6392 90° East 242 278 3,900  Level FlightAware ADS-B
Thu 06:47:44 AM 29.9928 -95.6229 89° East 241 277 3,900  Level FlightAware ADS-B
Thu 06:47:59 AM 29.9929 -95.6028 90° East 241 277 3,900 -375 Level FlightAware ADS-B
Thu 06:48:16 AM 29.9930 -95.5815 90° East 242 278 3,700 -938 Descending FlightAware ADS-B
Thu 06:48:31 AM 29.9930 -95.5619 90° East 241 277 3,400 -1,200 Descending FlightAware ADS-B
Thu 06:48:46 AM 29.9930 -95.5421 90° East 240 276 3,100 -1,200 Descending FlightAware ADS-B
Thu 06:49:01 AM 29.9931 -95.5242 90° East 232 267 2,800 -1,161 Descending FlightAware ADS-B
Thu 06:49:17 AM 29.9932 -95.5043 90° East 219 252 2,500 -1,161 Descending FlightAware ADS-B
Thu 06:49:32 AM 29.9932 -95.4884 90° East 206 237 2,200 -1,241 Descending FlightAware ADS-B
Thu 06:49:46 AM 29.9932 -95.4727 90° East 194 223 1,900 -774 Descending FlightAware ADS-B
Thu 06:50:03 AM 29.9933 -95.4562 90° East 182 209 1,800 -750 Descending FlightAware ADS-B
Thu 06:50:18 AM 29.9933 -95.4424 90° East 163 188 1,500 -968 Descending FlightAware ADS-B
Thu 06:50:34 AM 29.9933 -95.4298 90° East 151 174 1,300 -889 Descending FlightAware ADS-B
Thu 06:50:45 AM 29.9933 -95.4213 90° East 144 166 1,100 -692 Descending FlightAware ADS-B
Thu 06:51:00 AM 29.9933 -95.4096 90° East 141 162 1,000 -581 Descending FlightAware ADS-B
Thu 06:51:16 AM 29.9934 -95.3979 89° East 135 155 800 -800 Descending FlightAware ADS-B
Thu 06:51:30 AM 29.9934 -95.3876 90° East 132 152 600 -857 Descending FlightAware ADS-B
Thu 06:51:44 AM 29.9934 -95.3778 90° East 132 152 400 -600 Descending FlightAware ADS-B
Thu 06:52:00 AM 29.9934 -95.3664 90° East 133 153 300 -545 Descending FlightAware ADS-B
Thu 06:52:06 AM 29.9934 -95.3622 90° East 134 154 200 -857 Descending FlightAware ADS-B
Thu 06:52:14 AM 29.9934 -95.3565 90° East 134 154 100 -750 Descending FlightAware ADS-B
Thu 06:52:21 AM 29.9934 -95.3520 90° East 134 154 -857 Descending FlightAware ADS-B
Thu 06:52:24 AM 29.9934 -95.3498 90° East 134 154  Level FlightAware ADS-B

Login

Don't have an account? Register now (free) for customized features, flight alerts, and more!